sensor_id;sensor_type;location;lat;lon;timestamp;P1;durP1;ratioP1;P2;durP2;ratioP2
66371;SDS011;53168;51.146;17.120;2022-07-22T00:02:14;11.10;;;8.10;;
66371;SDS011;53168;51.146;17.120;2022-07-22T00:04:51;11.20;;;8.60;;
66371;SDS011;53168;51.146;17.120;2022-07-22T00:07:25;11.10;;;8.30;;
66371;SDS011;53168;51.146;17.120;2022-07-22T00:09:58;11.80;;;8.30;;
66371;SDS011;53168;51.146;17.120;2022-07-22T00:12:32;11.10;;;8.70;;
66371;SDS011;53168;51.146;17.120;2022-07-22T00:15:08;11.30;;;8.90;;
66371;SDS011;53168;51.146;17.120;2022-07-22T00:17:42;12.30;;;9.30;;
66371;SDS011;53168;51.146;17.120;2022-07-22T00:20:16;13.40;;;9.00;;
66371;SDS011;53168;51.146;17.120;2022-07-22T00:22:50;11.50;;;8.00;;
66371;SDS011;53168;51.146;17.120;2022-07-22T00:25:24;12.30;;;9.20;;
66371;SDS011;53168;51.146;17.120;2022-07-22T00:28:01;11.60;;;8.90;;
66371;SDS011;53168;51.146;17.120;2022-07-22T00:30:35;11.70;;;8.90;;
66371;SDS011;53168;51.146;17.120;2022-07-22T00:33:09;12.30;;;8.80;;
66371;SDS011;53168;51.146;17.120;2022-07-22T00:35:45;12.30;;;9.20;;
66371;SDS011;53168;51.146;17.120;2022-07-22T00:38:19;12.60;;;9.40;;
66371;SDS011;53168;51.146;17.120;2022-07-22T00:40:55;13.20;;;9.70;;
66371;SDS011;53168;51.146;17.120;2022-07-22T00:43:31;11.80;;;9.30;;
66371;SDS011;53168;51.146;17.120;2022-07-22T00:46:21;13.00;;;9.30;;
66371;SDS011;53168;51.146;17.120;2022-07-22T00:48:56;11.40;;;9.50;;
66371;SDS011;53168;51.146;17.120;2022-07-22T00:51:31;12.50;;;9.00;;
66371;SDS011;53168;51.146;17.120;2022-07-22T00:54:05;12.60;;;9.40;;
66371;SDS011;53168;51.146;17.120;2022-07-22T00:56:39;15.50;;;10.50;;
66371;SDS011;53168;51.146;17.120;2022-07-22T00:59:14;12.60;;;8.90;;
66371;SDS011;53168;51.146;17.120;2022-07-22T01:01:48;13.50;;;9.60;;
66371;SDS011;53168;51.146;17.120;2022-07-22T01:04:22;13.80;;;9.10;;
66371;SDS011;53168;51.146;17.120;2022-07-22T01:06:56;12.40;;;9.20;;
66371;SDS011;53168;51.146;17.120;2022-07-22T01:09:29;12.70;;;9.40;;
66371;SDS011;53168;51.146;17.120;2022-07-22T01:12:05;13.70;;;10.00;;
66371;SDS011;53168;51.146;17.120;2022-07-22T01:14:39;13.70;;;9.40;;
66371;SDS011;53168;51.146;17.120;2022-07-22T01:17:13;13.50;;;9.60;;
66371;SDS011;53168;51.146;17.120;2022-07-22T01:19:47;12.80;;;9.70;;
66371;SDS011;53168;51.146;17.120;2022-07-22T01:22:21;12.50;;;8.90;;
66371;SDS011;53168;51.146;17.120;2022-07-22T01:25:03;12.50;;;9.60;;
66371;SDS011;53168;51.146;17.120;2022-07-22T01:27:38;12.00;;;10.10;;
66371;SDS011;53168;51.146;17.120;2022-07-22T01:30:12;10.80;;;9.20;;
66371;SDS011;53168;51.146;17.120;2022-07-22T01:32:46;12.50;;;9.10;;
66371;SDS011;53168;51.146;17.120;2022-07-22T01:35:20;12.40;;;9.70;;
66371;SDS011;53168;51.146;17.120;2022-07-22T01:37:53;11.20;;;9.50;;
66371;SDS011;53168;51.146;17.120;2022-07-22T01:40:27;16.80;;;10.50;;
66371;SDS011;53168;51.146;17.120;2022-07-22T01:43:01;13.20;;;9.80;;
66371;SDS011;53168;51.146;17.120;2022-07-22T01:45:36;14.80;;;10.40;;
66371;SDS011;53168;51.146;17.120;2022-07-22T01:48:09;17.00;;;10.70;;
66371;SDS011;53168;51.146;17.120;2022-07-22T01:50:43;14.10;;;10.20;;
66371;SDS011;53168;51.146;17.120;2022-07-22T01:53:17;12.40;;;9.60;;
66371;SDS011;53168;51.146;17.120;2022-07-22T01:55:51;14.10;;;10.10;;
66371;SDS011;53168;51.146;17.120;2022-07-22T01:58:25;14.00;;;9.30;;
66371;SDS011;53168;51.146;17.120;2022-07-22T02:00:59;15.40;;;10.00;;
66371;SDS011;53168;51.146;17.120;2022-07-22T02:03:33;11.40;;;9.60;;
66371;SDS011;53168;51.146;17.120;2022-07-22T02:06:08;11.70;;;9.50;;
66371;SDS011;53168;51.146;17.120;2022-07-22T02:08:42;13.40;;;9.30;;
66371;SDS011;53168;51.146;17.120;2022-07-22T02:11:17;13.50;;;9.70;;
66371;SDS011;53168;51.146;17.120;2022-07-22T02:13:56;13.10;;;9.70;;
66371;SDS011;53168;51.146;17.120;2022-07-22T02:16:31;14.10;;;10.40;;
66371;SDS011;53168;51.146;17.120;2022-07-22T02:19:08;14.30;;;10.20;;
66371;SDS011;53168;51.146;17.120;2022-07-22T02:21:42;11.20;;;9.00;;
66371;SDS011;53168;51.146;17.120;2022-07-22T02:24:35;11.80;;;9.70;;
66371;SDS011;53168;51.146;17.120;2022-07-22T02:27:09;12.70;;;9.80;;
66371;SDS011;53168;51.146;17.120;2022-07-22T02:29:43;12.60;;;10.70;;
66371;SDS011;53168;51.146;17.120;2022-07-22T02:32:17;14.70;;;10.10;;
66371;SDS011;53168;51.146;17.120;2022-07-22T02:34:52;13.00;;;10.20;;
66371;SDS011;53168;51.146;17.120;2022-07-22T02:37:27;12.60;;;10.50;;
66371;SDS011;53168;51.146;17.120;2022-07-22T02:40:00;13.40;;;10.20;;
66371;SDS011;53168;51.146;17.120;2022-07-22T02:42:34;14.70;;;10.50;;
66371;SDS011;53168;51.146;17.120;2022-07-22T02:45:09;11.30;;;9.80;;
66371;SDS011;53168;51.146;17.120;2022-07-22T02:47:51;14.90;;;10.00;;
66371;SDS011;53168;51.146;17.120;2022-07-22T02:50:26;15.00;;;9.80;;
66371;SDS011;53168;51.146;17.120;2022-07-22T02:53:00;15.20;;;10.60;;
66371;SDS011;53168;51.146;17.120;2022-07-22T02:55:37;12.50;;;9.70;;
66371;SDS011;53168;51.146;17.120;2022-07-22T02:58:10;12.50;;;9.50;;
66371;SDS011;53168;51.146;17.120;2022-07-22T03:00:45;13.50;;;9.60;;
66371;SDS011;53168;51.146;17.120;2022-07-22T03:03:20;14.70;;;10.60;;
66371;SDS011;53168;51.146;17.120;2022-07-22T03:05:55;15.30;;;10.80;;
66371;SDS011;53168;51.146;17.120;2022-07-22T03:11:10;14.70;;;10.70;;
66371;SDS011;53168;51.146;17.120;2022-07-22T03:13:44;16.40;;;11.40;;
66371;SDS011;53168;51.146;17.120;2022-07-22T03:16:18;14.70;;;11.50;;
66371;SDS011;53168;51.146;17.120;2022-07-22T03:18:59;20.00;;;11.60;;
66371;SDS011;53168;51.146;17.120;2022-07-22T03:21:33;18.10;;;12.10;;
66371;SDS011;53168;51.146;17.120;2022-07-22T03:24:07;16.10;;;11.30;;
66371;SDS011;53168;51.146;17.120;2022-07-22T03:26:41;13.80;;;10.40;;
66371;SDS011;53168;51.146;17.120;2022-07-22T03:29:17;16.50;;;11.30;;
66371;SDS011;53168;51.146;17.120;2022-07-22T03:31:54;18.50;;;11.60;;
66371;SDS011;53168;51.146;17.120;2022-07-22T03:34:41;22.40;;;12.40;;
66371;SDS011;53168;51.146;17.120;2022-07-22T03:37:18;19.00;;;12.20;;
66371;SDS011;53168;51.146;17.120;2022-07-22T03:39:51;23.60;;;14.40;;
66371;SDS011;53168;51.146;17.120;2022-07-22T03:42:25;20.80;;;13.00;;
66371;SDS011;53168;51.146;17.120;2022-07-22T03:44:59;17.70;;;11.90;;
66371;SDS011;53168;51.146;17.120;2022-07-22T03:47:33;21.90;;;13.30;;
66371;SDS011;53168;51.146;17.120;2022-07-22T03:50:08;24.00;;;13.80;;
66371;SDS011;53168;51.146;17.120;2022-07-22T03:52:42;18.70;;;12.10;;
66371;SDS011;53168;51.146;17.120;2022-07-22T03:55:15;19.40;;;12.50;;
66371;SDS011;53168;51.146;17.120;2022-07-22T03:57:50;17.90;;;12.30;;
66371;SDS011;53168;51.146;17.120;2022-07-22T04:00:28;18.60;;;13.20;;
66371;SDS011;53168;51.146;17.120;2022-07-22T04:03:04;21.00;;;13.10;;
66371;SDS011;53168;51.146;17.120;2022-07-22T04:05:58;21.40;;;12.60;;
66371;SDS011;53168;51.146;17.120;2022-07-22T04:08:40;19.90;;;13.90;;
66371;SDS011;53168;51.146;17.120;2022-07-22T04:11:15;21.50;;;14.00;;
66371;SDS011;53168;51.146;17.120;2022-07-22T04:13:51;24.70;;;14.90;;
66371;SDS011;53168;51.146;17.120;2022-07-22T04:19:45;19.10;;;14.10;;
66371;SDS011;53168;51.146;17.120;2022-07-22T04:22:30;19.70;;;14.40;;
66371;SDS011;53168;51.146;17.120;2022-07-22T04:25:04;22.60;;;14.90;;
66371;SDS011;53168;51.146;17.120;2022-07-22T04:27:39;22.50;;;12.10;;
66371;SDS011;53168;51.146;17.120;2022-07-22T04:30:12;23.60;;;15.00;;
66371;SDS011;53168;51.146;17.120;2022-07-22T04:32:47;22.20;;;14.80;;
66371;SDS011;53168;51.146;17.120;2022-07-22T04:35:21;26.70;;;16.70;;
66371;SDS011;53168;51.146;17.120;2022-07-22T04:38:09;21.90;;;14.70;;
66371;SDS011;53168;51.146;17.120;2022-07-22T04:40:48;21.70;;;14.50;;
66371;SDS011;53168;51.146;17.120;2022-07-22T04:43:24;17.90;;;13.50;;
66371;SDS011;53168;51.146;17.120;2022-07-22T04:46:04;21.30;;;14.20;;
66371;SDS011;53168;51.146;17.120;2022-07-22T04:48:41;23.10;;;15.80;;
66371;SDS011;53168;51.146;17.120;2022-07-22T04:51:15;24.30;;;15.40;;
66371;SDS011;53168;51.146;17.120;2022-07-22T04:53:50;25.20;;;15.40;;
66371;SDS011;53168;51.146;17.120;2022-07-22T04:56:25;26.60;;;14.60;;
66371;SDS011;53168;51.146;17.120;2022-07-22T04:58:59;28.00;;;15.10;;
66371;SDS011;53168;51.146;17.120;2022-07-22T05:01:34;25.00;;;16.00;;
66371;SDS011;53168;51.146;17.120;2022-07-22T05:04:10;25.30;;;15.10;;
66371;SDS011;53168;51.146;17.120;2022-07-22T05:06:44;20.90;;;14.70;;
66371;SDS011;53168;51.146;17.120;2022-07-22T05:09:17;24.50;;;16.20;;
66371;SDS011;53168;51.146;17.120;2022-07-22T05:11:51;24.00;;;16.20;;
66371;SDS011;53168;51.146;17.120;2022-07-22T05:14:25;21.90;;;15.70;;
66371;SDS011;53168;51.146;17.120;2022-07-22T05:16:59;21.20;;;14.60;;
66371;SDS011;53168;51.146;17.120;2022-07-22T05:19:33;22.50;;;15.50;;
66371;SDS011;53168;51.146;17.120;2022-07-22T05:22:10;22.10;;;14.60;;
66371;SDS011;53168;51.146;17.120;2022-07-22T05:24:43;27.90;;;15.80;;
66371;SDS011;53168;51.146;17.120;2022-07-22T05:27:18;23.20;;;16.20;;
66371;SDS011;53168;51.146;17.120;2022-07-22T05:29:51;23.00;;;15.80;;
66371;SDS011;53168;51.146;17.120;2022-07-22T05:32:25;25.00;;;16.90;;
66371;SDS011;53168;51.146;17.120;2022-07-22T05:35:00;24.30;;;16.80;;
66371;SDS011;53168;51.146;17.120;2022-07-22T05:37:34;26.40;;;15.80;;
66371;SDS011;53168;51.146;17.120;2022-07-22T05:40:10;22.90;;;15.10;;
66371;SDS011;53168;51.146;17.120;2022-07-22T05:42:47;22.90;;;15.10;;
66371;SDS011;53168;51.146;17.120;2022-07-22T05:45:20;25.00;;;16.60;;
66371;SDS011;53168;51.146;17.120;2022-07-22T05:47:54;24.90;;;17.40;;
66371;SDS011;53168;51.146;17.120;2022-07-22T05:50:28;27.00;;;17.40;;
66371;SDS011;53168;51.146;17.120;2022-07-22T05:53:04;24.90;;;16.80;;
66371;SDS011;53168;51.146;17.120;2022-07-22T05:55:37;26.30;;;16.00;;
66371;SDS011;53168;51.146;17.120;2022-07-22T05:58:11;32.70;;;16.50;;
66371;SDS011;53168;51.146;17.120;2022-07-22T06:00:44;39.30;;;16.10;;
66371;SDS011;53168;51.146;17.120;2022-07-22T06:03:18;32.80;;;17.20;;
66371;SDS011;53168;51.146;17.120;2022-07-22T06:05:52;31.30;;;16.70;;
66371;SDS011;53168;51.146;17.120;2022-07-22T06:08:26;25.70;;;16.00;;
66371;SDS011;53168;51.146;17.120;2022-07-22T06:10:59;25.00;;;16.40;;
66371;SDS011;53168;51.146;17.120;2022-07-22T06:13:34;25.90;;;16.30;;
66371;SDS011;53168;51.146;17.120;2022-07-22T06:16:09;26.60;;;17.10;;
66371;SDS011;53168;51.146;17.120;2022-07-22T06:18:43;27.20;;;16.10;;
66371;SDS011;53168;51.146;17.120;2022-07-22T06:21:17;28.10;;;17.60;;
66371;SDS011;53168;51.146;17.120;2022-07-22T06:23:50;26.30;;;17.20;;
66371;SDS011;53168;51.146;17.120;2022-07-22T06:26:24;24.80;;;17.30;;
66371;SDS011;53168;51.146;17.120;2022-07-22T06:28:57;25.10;;;17.50;;
66371;SDS011;53168;51.146;17.120;2022-07-22T06:31:31;22.90;;;16.30;;
66371;SDS011;53168;51.146;17.120;2022-07-22T06:34:05;24.70;;;17.50;;
66371;SDS011;53168;51.146;17.120;2022-07-22T06:37:18;25.80;;;17.40;;
66371;SDS011;53168;51.146;17.120;2022-07-22T06:40:13;25.80;;;17.80;;
66371;SDS011;53168;51.146;17.120;2022-07-22T06:42:57;25.30;;;17.00;;
66371;SDS011;53168;51.146;17.120;2022-07-22T06:48:51;26.80;;;18.80;;
66371;SDS011;53168;51.146;17.120;2022-07-22T06:51:28;25.90;;;17.70;;
66371;SDS011;53168;51.146;17.120;2022-07-22T06:54:18;24.70;;;17.60;;
66371;SDS011;53168;51.146;17.120;2022-07-22T06:56:53;26.20;;;17.80;;
66371;SDS011;53168;51.146;17.120;2022-07-22T06:59:31;25.30;;;18.00;;
66371;SDS011;53168;51.146;17.120;2022-07-22T07:02:09;23.90;;;17.20;;
66371;SDS011;53168;51.146;17.120;2022-07-22T07:04:43;22.70;;;16.80;;
66371;SDS011;53168;51.146;17.120;2022-07-22T07:07:18;25.00;;;16.90;;
66371;SDS011;53168;51.146;17.120;2022-07-22T07:10:04;28.60;;;18.60;;
66371;SDS011;53168;51.146;17.120;2022-07-22T07:12:49;23.10;;;16.60;;
66371;SDS011;53168;51.146;17.120;2022-07-22T07:15:45;25.00;;;18.30;;
66371;SDS011;53168;51.146;17.120;2022-07-22T07:18:19;24.30;;;15.80;;
66371;SDS011;53168;51.146;17.120;2022-07-22T07:20:55;24.70;;;17.20;;
66371;SDS011;53168;51.146;17.120;2022-07-22T07:23:51;25.10;;;17.50;;
66371;SDS011;53168;51.146;17.120;2022-07-22T07:26:29;25.60;;;16.60;;
66371;SDS011;53168;51.146;17.120;2022-07-22T07:29:03;24.40;;;17.70;;
66371;SDS011;53168;51.146;17.120;2022-07-22T07:31:45;25.00;;;17.60;;
66371;SDS011;53168;51.146;17.120;2022-07-22T07:34:21;24.90;;;17.40;;
66371;SDS011;53168;51.146;17.120;2022-07-22T07:37:00;23.80;;;16.80;;
66371;SDS011;53168;51.146;17.120;2022-07-22T07:39:36;22.80;;;16.20;;
66371;SDS011;53168;51.146;17.120;2022-07-22T07:42:10;22.60;;;16.90;;
66371;SDS011;53168;51.146;17.120;2022-07-22T07:44:43;23.90;;;17.00;;
66371;SDS011;53168;51.146;17.120;2022-07-22T07:47:17;21.90;;;17.80;;
66371;SDS011;53168;51.146;17.120;2022-07-22T07:49:51;23.50;;;16.80;;
66371;SDS011;53168;51.146;17.120;2022-07-22T07:52:24;24.10;;;17.90;;
66371;SDS011;53168;51.146;17.120;2022-07-22T07:54:58;25.00;;;18.10;;
66371;SDS011;53168;51.146;17.120;2022-07-22T07:57:42;24.60;;;17.70;;
66371;SDS011;53168;51.146;17.120;2022-07-22T08:00:23;24.10;;;18.30;;
66371;SDS011;53168;51.146;17.120;2022-07-22T08:03:00;26.20;;;17.90;;
66371;SDS011;53168;51.146;17.120;2022-07-22T08:05:36;27.80;;;17.70;;
66371;SDS011;53168;51.146;17.120;2022-07-22T08:08:19;30.70;;;18.70;;
66371;SDS011;53168;51.146;17.120;2022-07-22T08:10:53;26.80;;;19.60;;
66371;SDS011;53168;51.146;17.120;2022-07-22T08:13:35;24.50;;;17.70;;
66371;SDS011;53168;51.146;17.120;2022-07-22T08:16:51;26.90;;;17.70;;
66371;SDS011;53168;51.146;17.120;2022-07-22T08:19:26;25.30;;;19.10;;
66371;SDS011;53168;51.146;17.120;2022-07-22T08:22:15;32.50;;;18.60;;
66371;SDS011;53168;51.146;17.120;2022-07-22T08:25:00;22.90;;;18.00;;
66371;SDS011;53168;51.146;17.120;2022-07-22T08:27:38;26.00;;;17.80;;
66371;SDS011;53168;51.146;17.120;2022-07-22T08:30:14;26.50;;;17.80;;
66371;SDS011;53168;51.146;17.120;2022-07-22T08:36:43;27.30;;;19.30;;
66371;SDS011;53168;51.146;17.120;2022-07-22T08:39:42;28.30;;;18.70;;
66371;SDS011;53168;51.146;17.120;2022-07-22T08:42:46;23.60;;;17.90;;
66371;SDS011;53168;51.146;17.120;2022-07-22T08:45:40;23.50;;;18.80;;
66371;SDS011;53168;51.146;17.120;2022-07-22T08:48:15;21.20;;;17.40;;
66371;SDS011;53168;51.146;17.120;2022-07-22T08:51:12;26.40;;;19.30;;
66371;SDS011;53168;51.146;17.120;2022-07-22T08:53:59;31.00;;;19.20;;
66371;SDS011;53168;51.146;17.120;2022-07-22T08:56:32;24.60;;;17.40;;
66371;SDS011;53168;51.146;17.120;2022-07-22T08:59:08;23.90;;;19.00;;
66371;SDS011;53168;51.146;17.120;2022-07-22T09:02:03;25.20;;;18.20;;
66371;SDS011;53168;51.146;17.120;2022-07-22T09:04:54;24.70;;;18.40;;
66371;SDS011;53168;51.146;17.120;2022-07-22T09:07:45;22.90;;;18.00;;
66371;SDS011;53168;51.146;17.120;2022-07-22T09:10:48;23.30;;;17.40;;
66371;SDS011;53168;51.146;17.120;2022-07-22T09:13:25;23.30;;;18.20;;
66371;SDS011;53168;51.146;17.120;2022-07-22T09:16:11;23.00;;;16.90;;
66371;SDS011;53168;51.146;17.120;2022-07-22T09:18:53;22.70;;;17.40;;
66371;SDS011;53168;51.146;17.120;2022-07-22T09:21:44;21.70;;;17.00;;
66371;SDS011;53168;51.146;17.120;2022-07-22T09:24:30;21.10;;;17.10;;
66371;SDS011;53168;51.146;17.120;2022-07-22T09:27:29;22.80;;;18.40;;
66371;SDS011;53168;51.146;17.120;2022-07-22T09:30:29;23.70;;;16.90;;
66371;SDS011;53168;51.146;17.120;2022-07-22T09:33:10;23.30;;;17.70;;
66371;SDS011;53168;51.146;17.120;2022-07-22T09:35:52;20.90;;;16.90;;
66371;SDS011;53168;51.146;17.120;2022-07-22T09:38:41;22.10;;;15.90;;
66371;SDS011;53168;51.146;17.120;2022-07-22T09:44:33;21.80;;;16.50;;
66371;SDS011;53168;51.146;17.120;2022-07-22T09:47:53;23.70;;;15.90;;
66371;SDS011;53168;51.146;17.120;2022-07-22T09:51:00;18.80;;;15.40;;
66371;SDS011;53168;51.146;17.120;2022-07-22T09:53:57;23.80;;;16.60;;
66371;SDS011;53168;51.146;17.120;2022-07-22T09:56:34;21.50;;;16.10;;
66371;SDS011;53168;51.146;17.120;2022-07-22T09:59:09;18.70;;;14.80;;
66371;SDS011;53168;51.146;17.120;2022-07-22T10:01:57;19.30;;;14.90;;
66371;SDS011;53168;51.146;17.120;2022-07-22T10:04:48;19.40;;;12.80;;
66371;SDS011;53168;51.146;17.120;2022-07-22T10:07:24;13.80;;;10.90;;
66371;SDS011;53168;51.146;17.120;2022-07-22T10:09:59;17.50;;;12.40;;
66371;SDS011;53168;51.146;17.120;2022-07-22T10:12:35;14.50;;;12.50;;
66371;SDS011;53168;51.146;17.120;2022-07-22T10:15:11;13.90;;;12.00;;
66371;SDS011;53168;51.146;17.120;2022-07-22T10:17:48;14.60;;;13.00;;
66371;SDS011;53168;51.146;17.120;2022-07-22T10:20:25;13.50;;;11.60;;
66371;SDS011;53168;51.146;17.120;2022-07-22T10:23:01;15.20;;;11.90;;
66371;SDS011;53168;51.146;17.120;2022-07-22T10:25:54;15.80;;;12.20;;
66371;SDS011;53168;51.146;17.120;2022-07-22T10:28:32;15.90;;;12.10;;
66371;SDS011;53168;51.146;17.120;2022-07-22T10:31:20;16.90;;;12.80;;
66371;SDS011;53168;51.146;17.120;2022-07-22T10:33:56;17.10;;;12.40;;
66371;SDS011;53168;51.146;17.120;2022-07-22T10:36:39;17.40;;;13.00;;
66371;SDS011;53168;51.146;17.120;2022-07-22T10:39:17;15.40;;;12.50;;
66371;SDS011;53168;51.146;17.120;2022-07-22T10:41:55;16.40;;;12.50;;
66371;SDS011;53168;51.146;17.120;2022-07-22T10:44:50;16.00;;;12.30;;
66371;SDS011;53168;51.146;17.120;2022-07-22T10:47:55;14.50;;;13.00;;
66371;SDS011;53168;51.146;17.120;2022-07-22T10:51:09;14.20;;;12.10;;
66371;SDS011;53168;51.146;17.120;2022-07-22T10:53:51;15.20;;;12.30;;
66371;SDS011;53168;51.146;17.120;2022-07-22T10:56:30;13.00;;;11.70;;
66371;SDS011;53168;51.146;17.120;2022-07-22T10:59:12;13.80;;;12.20;;
66371;SDS011;53168;51.146;17.120;2022-07-22T11:01:52;19.40;;;12.30;;
66371;SDS011;53168;51.146;17.120;2022-07-22T11:04:28;13.70;;;11.70;;
66371;SDS011;53168;51.146;17.120;2022-07-22T11:07:03;15.20;;;11.40;;
66371;SDS011;53168;51.146;17.120;2022-07-22T11:09:37;13.90;;;12.40;;
66371;SDS011;53168;51.146;17.120;2022-07-22T11:12:15;14.20;;;11.50;;
66371;SDS011;53168;51.146;17.120;2022-07-22T11:14:49;14.20;;;11.40;;
66371;SDS011;53168;51.146;17.120;2022-07-22T11:20:15;12.00;;;10.30;;
66371;SDS011;53168;51.146;17.120;2022-07-22T11:22:51;12.90;;;10.40;;
66371;SDS011;53168;51.146;17.120;2022-07-22T11:25:33;15.60;;;10.00;;
66371;SDS011;53168;51.146;17.120;2022-07-22T11:28:07;13.40;;;10.30;;
66371;SDS011;53168;51.146;17.120;2022-07-22T11:30:42;13.60;;;11.50;;
66371;SDS011;53168;51.146;17.120;2022-07-22T11:33:16;12.50;;;11.20;;
66371;SDS011;53168;51.146;17.120;2022-07-22T11:36:04;12.70;;;10.10;;
66371;SDS011;53168;51.146;17.120;2022-07-22T11:38:45;11.50;;;10.10;;
66371;SDS011;53168;51.146;17.120;2022-07-22T11:41:22;10.80;;;9.50;;
66371;SDS011;53168;51.146;17.120;2022-07-22T11:43:56;10.90;;;9.20;;
66371;SDS011;53168;51.146;17.120;2022-07-22T11:46:36;11.60;;;9.30;;
66371;SDS011;53168;51.146;17.120;2022-07-22T11:49:14;10.10;;;9.10;;
66371;SDS011;53168;51.146;17.120;2022-07-22T11:51:50;11.30;;;8.70;;
66371;SDS011;53168;51.146;17.120;2022-07-22T11:54:24;10.00;;;8.40;;
66371;SDS011;53168;51.146;17.120;2022-07-22T11:56:57;12.40;;;9.70;;
66371;SDS011;53168;51.146;17.120;2022-07-22T11:59:31;11.50;;;9.40;;
66371;SDS011;53168;51.146;17.120;2022-07-22T12:02:06;10.80;;;9.70;;
66371;SDS011;53168;51.146;17.120;2022-07-22T12:04:44;9.80;;;8.80;;
66371;SDS011;53168;51.146;17.120;2022-07-22T12:07:19;11.00;;;9.10;;
66371;SDS011;53168;51.146;17.120;2022-07-22T12:09:53;12.90;;;8.90;;
66371;SDS011;53168;51.146;17.120;2022-07-22T12:12:40;13.40;;;9.10;;
66371;SDS011;53168;51.146;17.120;2022-07-22T12:15:14;9.90;;;8.80;;
66371;SDS011;53168;51.146;17.120;2022-07-22T12:18:18;9.00;;;8.10;;
66371;SDS011;53168;51.146;17.120;2022-07-22T12:20:54;9.00;;;8.00;;
66371;SDS011;53168;51.146;17.120;2022-07-22T12:23:28;9.40;;;8.30;;
66371;SDS011;53168;51.146;17.120;2022-07-22T12:26:02;8.90;;;7.70;;
66371;SDS011;53168;51.146;17.120;2022-07-22T12:28:36;9.50;;;8.10;;
66371;SDS011;53168;51.146;17.120;2022-07-22T12:31:11;11.20;;;7.50;;
66371;SDS011;53168;51.146;17.120;2022-07-22T12:33:52;11.00;;;7.70;;
66371;SDS011;53168;51.146;17.120;2022-07-22T12:36:34;8.60;;;7.60;;
66371;SDS011;53168;51.146;17.120;2022-07-22T12:39:14;8.80;;;7.40;;
66371;SDS011;53168;51.146;17.120;2022-07-22T12:41:51;8.30;;;6.90;;
66371;SDS011;53168;51.146;17.120;2022-07-22T12:44:26;7.90;;;7.10;;
66371;SDS011;53168;51.146;17.120;2022-07-22T12:47:05;7.90;;;7.10;;
66371;SDS011;53168;51.146;17.120;2022-07-22T12:49:38;8.00;;;6.80;;
66371;SDS011;53168;51.146;17.120;2022-07-22T12:52:13;8.50;;;6.80;;
66371;SDS011;53168;51.146;17.120;2022-07-22T12:54:47;7.80;;;7.10;;
66371;SDS011;53168;51.146;17.120;2022-07-22T12:57:20;8.90;;;7.30;;
66371;SDS011;53168;51.146;17.120;2022-07-22T12:59:54;9.10;;;7.60;;
66371;SDS011;53168;51.146;17.120;2022-07-22T13:02:28;8.90;;;7.00;;
66371;SDS011;53168;51.146;17.120;2022-07-22T13:05:01;9.20;;;7.10;;
66371;SDS011;53168;51.146;17.120;2022-07-22T13:07:35;9.30;;;7.70;;
66371;SDS011;53168;51.146;17.120;2022-07-22T13:10:10;10.60;;;7.20;;
66371;SDS011;53168;51.146;17.120;2022-07-22T13:12:45;7.00;;;6.40;;
66371;SDS011;53168;51.146;17.120;2022-07-22T13:15:23;7.70;;;6.90;;
66371;SDS011;53168;51.146;17.120;2022-07-22T13:17:56;7.50;;;6.80;;
66371;SDS011;53168;51.146;17.120;2022-07-22T13:20:30;8.10;;;6.20;;
66371;SDS011;53168;51.146;17.120;2022-07-22T13:23:07;9.60;;;6.70;;
66371;SDS011;53168;51.146;17.120;2022-07-22T13:25:40;7.20;;;6.30;;
66371;SDS011;53168;51.146;17.120;2022-07-22T13:28:13;7.40;;;6.70;;
66371;SDS011;53168;51.146;17.120;2022-07-22T13:30:47;7.40;;;6.20;;
66371;SDS011;53168;51.146;17.120;2022-07-22T13:33:20;6.80;;;6.20;;
66371;SDS011;53168;51.146;17.120;2022-07-22T13:35:53;7.90;;;6.50;;
66371;SDS011;53168;51.146;17.120;2022-07-22T13:38:27;8.50;;;6.40;;
66371;SDS011;53168;51.146;17.120;2022-07-22T13:41:00;9.30;;;6.20;;
66371;SDS011;53168;51.146;17.120;2022-07-22T13:43:47;7.50;;;5.50;;
66371;SDS011;53168;51.146;17.120;2022-07-22T13:46:31;7.20;;;6.50;;
66371;SDS011;53168;51.146;17.120;2022-07-22T13:49:23;8.30;;;6.30;;
66371;SDS011;53168;51.146;17.120;2022-07-22T13:52:06;7.40;;;6.30;;
66371;SDS011;53168;51.146;17.120;2022-07-22T13:55:04;8.00;;;6.30;;
66371;SDS011;53168;51.146;17.120;2022-07-22T13:57:45;6.90;;;6.10;;
66371;SDS011;53168;51.146;17.120;2022-07-22T14:00:29;7.00;;;5.90;;
66371;SDS011;53168;51.146;17.120;2022-07-22T14:03:23;6.90;;;6.10;;
66371;SDS011;53168;51.146;17.120;2022-07-22T14:06:18;9.30;;;6.70;;
66371;SDS011;53168;51.146;17.120;2022-07-22T14:08:52;7.30;;;6.30;;
66371;SDS011;53168;51.146;17.120;2022-07-22T14:11:26;8.50;;;6.20;;
66371;SDS011;53168;51.146;17.120;2022-07-22T14:14:00;7.40;;;6.60;;
66371;SDS011;53168;51.146;17.120;2022-07-22T14:16:33;7.20;;;6.40;;
66371;SDS011;53168;51.146;17.120;2022-07-22T14:19:27;6.90;;;6.30;;
66371;SDS011;53168;51.146;17.120;2022-07-22T14:22:34;7.50;;;6.50;;
66371;SDS011;53168;51.146;17.120;2022-07-22T14:25:08;6.80;;;6.00;;
66371;SDS011;53168;51.146;17.120;2022-07-22T14:27:41;7.40;;;6.00;;
66371;SDS011;53168;51.146;17.120;2022-07-22T14:30:15;7.00;;;6.30;;
66371;SDS011;53168;51.146;17.120;2022-07-22T14:32:48;7.40;;;6.50;;
66371;SDS011;53168;51.146;17.120;2022-07-22T14:35:22;12.10;;;6.60;;
66371;SDS011;53168;51.146;17.120;2022-07-22T14:37:57;7.30;;;6.60;;
66371;SDS011;53168;51.146;17.120;2022-07-22T14:40:32;8.60;;;6.40;;
66371;SDS011;53168;51.146;17.120;2022-07-22T14:43:06;7.90;;;7.10;;
66371;SDS011;53168;51.146;17.120;2022-07-22T14:46:00;10.60;;;7.30;;
66371;SDS011;53168;51.146;17.120;2022-07-22T14:48:37;8.50;;;7.40;;
66371;SDS011;53168;51.146;17.120;2022-07-22T14:51:12;7.90;;;7.10;;
66371;SDS011;53168;51.146;17.120;2022-07-22T14:53:45;11.00;;;7.30;;
66371;SDS011;53168;51.146;17.120;2022-07-22T14:56:18;9.20;;;7.10;;
66371;SDS011;53168;51.146;17.120;2022-07-22T14:58:52;8.50;;;7.00;;
66371;SDS011;53168;51.146;17.120;2022-07-22T15:01:25;7.80;;;7.10;;
66371;SDS011;53168;51.146;17.120;2022-07-22T15:03:59;10.70;;;6.90;;
66371;SDS011;53168;51.146;17.120;2022-07-22T15:06:33;7.80;;;6.80;;
66371;SDS011;53168;51.146;17.120;2022-07-22T15:09:06;7.90;;;6.80;;
66371;SDS011;53168;51.146;17.120;2022-07-22T15:11:39;7.90;;;6.90;;
66371;SDS011;53168;51.146;17.120;2022-07-22T15:14:13;8.70;;;7.10;;
66371;SDS011;53168;51.146;17.120;2022-07-22T15:16:46;7.20;;;6.50;;
66371;SDS011;53168;51.146;17.120;2022-07-22T15:19:19;7.90;;;6.50;;
66371;SDS011;53168;51.146;17.120;2022-07-22T15:21:57;7.90;;;6.90;;
66371;SDS011;53168;51.146;17.120;2022-07-22T15:24:30;7.50;;;6.40;;
66371;SDS011;53168;51.146;17.120;2022-07-22T15:27:04;10.30;;;7.10;;
66371;SDS011;53168;51.146;17.120;2022-07-22T15:29:38;7.90;;;6.80;;
66371;SDS011;53168;51.146;17.120;2022-07-22T15:32:11;8.20;;;6.90;;
66371;SDS011;53168;51.146;17.120;2022-07-22T15:34:45;10.20;;;6.80;;
66371;SDS011;53168;51.146;17.120;2022-07-22T15:37:18;8.30;;;7.50;;
66371;SDS011;53168;51.146;17.120;2022-07-22T15:39:53;8.70;;;7.20;;